sensor_id;sensor_type;location;lat;lon;timestamp;P1;durP1;ratioP1;P2;durP2;ratioP2
56285;SDS011;42191;47.562;9.686;2023-05-19T00:01:57;35.58;;;33.42;;
56285;SDS011;42191;47.562;9.686;2023-05-19T00:04:29;37.17;;;34.88;;
56285;SDS011;42191;47.562;9.686;2023-05-19T00:06:55;34.80;;;32.60;;
56285;SDS011;42191;47.562;9.686;2023-05-19T00:09:24;35.22;;;33.03;;
56285;SDS011;42191;47.562;9.686;2023-05-19T00:11:51;36.10;;;33.90;;
56285;SDS011;42191;47.562;9.686;2023-05-19T00:14:17;35.28;;;33.17;;
56285;SDS011;42191;47.562;9.686;2023-05-19T00:16:43;36.22;;;34.03;;
56285;SDS011;42191;47.562;9.686;2023-05-19T00:19:11;36.03;;;33.83;;
56285;SDS011;42191;47.562;9.686;2023-05-19T00:21:37;34.92;;;32.83;;
56285;SDS011;42191;47.562;9.686;2023-05-19T00:24:04;34.88;;;32.78;;
56285;SDS011;42191;47.562;9.686;2023-05-19T00:26:31;36.03;;;33.83;;
56285;SDS011;42191;47.562;9.686;2023-05-19T00:28:57;35.50;;;33.30;;
56285;SDS011;42191;47.562;9.686;2023-05-19T00:31:23;36.70;;;34.47;;
56285;SDS011;42191;47.562;9.686;2023-05-19T00:33:49;34.08;;;32.08;;
56285;SDS011;42191;47.562;9.686;2023-05-19T00:36:16;36.70;;;34.50;;
56285;SDS011;42191;47.562;9.686;2023-05-19T00:38:42;35.97;;;33.67;;
56285;SDS011;42191;47.562;9.686;2023-05-19T00:41:08;36.33;;;34.13;;
56285;SDS011;42191;47.562;9.686;2023-05-19T00:43:35;37.28;;;34.97;;
56285;SDS011;42191;47.562;9.686;2023-05-19T00:46:01;37.15;;;34.85;;
56285;SDS011;42191;47.562;9.686;2023-05-19T00:48:27;35.40;;;33.20;;
56285;SDS011;42191;47.562;9.686;2023-05-19T00:50:54;35.58;;;33.47;;
56285;SDS011;42191;47.562;9.686;2023-05-19T00:53:26;36.20;;;34.05;;
56285;SDS011;42191;47.562;9.686;2023-05-19T00:55:52;36.28;;;34.08;;
56285;SDS011;42191;47.562;9.686;2023-05-19T00:58:18;34.88;;;32.78;;
56285;SDS011;42191;47.562;9.686;2023-05-19T01:00:45;36.63;;;34.30;;
56285;SDS011;42191;47.562;9.686;2023-05-19T01:03:12;36.55;;;34.28;;
56285;SDS011;42191;47.562;9.686;2023-05-19T01:05:42;36.08;;;33.88;;
56285;SDS011;42191;47.562;9.686;2023-05-19T01:08:18;35.88;;;33.67;;
56285;SDS011;42191;47.562;9.686;2023-05-19T01:10:44;36.22;;;34.03;;
56285;SDS011;42191;47.562;9.686;2023-05-19T01:13:10;36.17;;;34.00;;
56285;SDS011;42191;47.562;9.686;2023-05-19T01:15:39;34.58;;;32.40;;
56285;SDS011;42191;47.562;9.686;2023-05-19T01:30:25;35.85;;;33.65;;
56285;SDS011;42191;47.562;9.686;2023-05-19T01:33:01;36.22;;;34.03;;
56285;SDS011;42191;47.562;9.686;2023-05-19T01:35:31;35.97;;;33.78;;
56285;SDS011;42191;47.562;9.686;2023-05-19T01:37:59;35.85;;;33.65;;
56285;SDS011;42191;47.562;9.686;2023-05-19T01:40:27;37.53;;;35.22;;
56285;SDS011;42191;47.562;9.686;2023-05-19T01:42:55;36.90;;;34.70;;
56285;SDS011;42191;47.562;9.686;2023-05-19T01:45:22;38.05;;;35.63;;
56285;SDS011;42191;47.562;9.686;2023-05-19T01:47:52;36.08;;;33.90;;
56285;SDS011;42191;47.562;9.686;2023-05-19T01:50:20;36.17;;;33.97;;
56285;SDS011;42191;47.562;9.686;2023-05-19T01:52:47;37.83;;;35.53;;
56285;SDS011;42191;47.562;9.686;2023-05-19T01:55:13;36.72;;;34.53;;
56285;SDS011;42191;47.562;9.686;2023-05-19T02:00:52;37.38;;;35.13;;
56285;SDS011;42191;47.562;9.686;2023-05-19T02:12:35;37.83;;;35.53;;
56285;SDS011;42191;47.562;9.686;2023-05-19T02:17:44;35.45;;;33.25;;
56285;SDS011;42191;47.562;9.686;2023-05-19T02:20:14;39.13;;;36.80;;
56285;SDS011;42191;47.562;9.686;2023-05-19T02:22:41;35.63;;;33.47;;
56285;SDS011;42191;47.562;9.686;2023-05-19T02:25:08;37.00;;;34.75;;
56285;SDS011;42191;47.562;9.686;2023-05-19T02:27:35;37.10;;;34.90;;
56285;SDS011;42191;47.562;9.686;2023-05-19T02:30:05;38.42;;;36.13;;
56285;SDS011;42191;47.562;9.686;2023-05-19T02:32:32;37.70;;;35.40;;
56285;SDS011;42191;47.562;9.686;2023-05-19T02:34:58;36.75;;;34.55;;
56285;SDS011;42191;47.562;9.686;2023-05-19T02:37:25;35.97;;;33.78;;
56285;SDS011;42191;47.562;9.686;2023-05-19T02:39:52;37.75;;;35.15;;
56285;SDS011;42191;47.562;9.686;2023-05-19T02:42:19;38.38;;;35.75;;
56285;SDS011;42191;47.562;9.686;2023-05-19T02:44:45;37.15;;;34.95;;
56285;SDS011;42191;47.562;9.686;2023-05-19T02:47:12;37.95;;;35.58;;
56285;SDS011;42191;47.562;9.686;2023-05-19T02:49:38;37.17;;;34.83;;
56285;SDS011;42191;47.562;9.686;2023-05-19T02:52:05;37.70;;;35.38;;
56285;SDS011;42191;47.562;9.686;2023-05-19T02:54:31;37.45;;;35.17;;
56285;SDS011;42191;47.562;9.686;2023-05-19T02:56:58;35.65;;;33.45;;
56285;SDS011;42191;47.562;9.686;2023-05-19T02:59:24;36.70;;;34.50;;
56285;SDS011;42191;47.562;9.686;2023-05-19T03:01:53;35.42;;;33.33;;
56285;SDS011;42191;47.562;9.686;2023-05-19T03:04:20;37.65;;;35.45;;
56285;SDS011;42191;47.562;9.686;2023-05-19T03:06:47;36.53;;;34.33;;
56285;SDS011;42191;47.562;9.686;2023-05-19T03:09:14;37.78;;;35.33;;
56285;SDS011;42191;47.562;9.686;2023-05-19T03:11:40;37.28;;;35.08;;
56285;SDS011;42191;47.562;9.686;2023-05-19T03:14:06;37.30;;;35.00;;
56285;SDS011;42191;47.562;9.686;2023-05-19T03:16:38;36.47;;;34.28;;
56285;SDS011;42191;47.562;9.686;2023-05-19T03:19:06;37.40;;;35.20;;
56285;SDS011;42191;47.562;9.686;2023-05-19T03:21:32;37.00;;;34.80;;
56285;SDS011;42191;47.562;9.686;2023-05-19T03:23:59;37.58;;;35.28;;
56285;SDS011;42191;47.562;9.686;2023-05-19T03:26:26;36.47;;;34.17;;
56285;SDS011;42191;47.562;9.686;2023-05-19T03:28:53;38.50;;;36.10;;
56285;SDS011;42191;47.562;9.686;2023-05-19T03:31:19;35.78;;;33.63;;
56285;SDS011;42191;47.562;9.686;2023-05-19T03:33:45;37.38;;;35.13;;
56285;SDS011;42191;47.562;9.686;2023-05-19T03:36:11;37.40;;;35.20;;
56285;SDS011;42191;47.562;9.686;2023-05-19T03:38:37;38.40;;;36.03;;
56285;SDS011;42191;47.562;9.686;2023-05-19T03:41:04;36.95;;;34.75;;
56285;SDS011;42191;47.562;9.686;2023-05-19T03:43:30;36.85;;;34.65;;
56285;SDS011;42191;47.562;9.686;2023-05-19T03:45:56;36.75;;;34.45;;
56285;SDS011;42191;47.562;9.686;2023-05-19T03:48:22;36.70;;;34.50;;
56285;SDS011;42191;47.562;9.686;2023-05-19T03:50:49;36.70;;;34.50;;
56285;SDS011;42191;47.562;9.686;2023-05-19T03:53:15;36.67;;;34.45;;
56285;SDS011;42191;47.562;9.686;2023-05-19T03:55:41;37.90;;;35.60;;
56285;SDS011;42191;47.562;9.686;2023-05-19T03:58:08;38.92;;;36.53;;
56285;SDS011;42191;47.562;9.686;2023-05-19T04:00:34;39.25;;;36.85;;
56285;SDS011;42191;47.562;9.686;2023-05-19T04:03:00;37.85;;;35.47;;
56285;SDS011;42191;47.562;9.686;2023-05-19T04:05:26;36.00;;;33.70;;
56285;SDS011;42191;47.562;9.686;2023-05-19T04:07:53;36.08;;;33.90;;
56285;SDS011;42191;47.562;9.686;2023-05-19T04:10:19;37.58;;;35.30;;
56285;SDS011;42191;47.562;9.686;2023-05-19T04:12:46;37.72;;;35.42;;
56285;SDS011;42191;47.562;9.686;2023-05-19T04:15:12;39.38;;;36.97;;
56285;SDS011;42191;47.562;9.686;2023-05-19T04:17:38;36.45;;;34.25;;
56285;SDS011;42191;47.562;9.686;2023-05-19T04:20:06;36.13;;;33.92;;
56285;SDS011;42191;47.562;9.686;2023-05-19T04:22:32;36.42;;;34.17;;
56285;SDS011;42191;47.562;9.686;2023-05-19T04:24:58;37.45;;;35.15;;
56285;SDS011;42191;47.562;9.686;2023-05-19T04:27:24;38.92;;;36.53;;
56285;SDS011;42191;47.562;9.686;2023-05-19T04:29:52;36.00;;;33.80;;
56285;SDS011;42191;47.562;9.686;2023-05-19T04:32:20;35.35;;;33.25;;
56285;SDS011;42191;47.562;9.686;2023-05-19T04:34:46;36.17;;;33.88;;
56285;SDS011;42191;47.562;9.686;2023-05-19T04:37:12;35.47;;;33.38;;
56285;SDS011;42191;47.562;9.686;2023-05-19T04:39:40;37.85;;;35.55;;
56285;SDS011;42191;47.562;9.686;2023-05-19T04:42:08;36.65;;;34.45;;
56285;SDS011;42191;47.562;9.686;2023-05-19T04:44:35;36.83;;;34.45;;
56285;SDS011;42191;47.562;9.686;2023-05-19T04:47:05;36.10;;;33.83;;
56285;SDS011;42191;47.562;9.686;2023-05-19T04:49:32;35.53;;;33.33;;
56285;SDS011;42191;47.562;9.686;2023-05-19T04:52:03;38.15;;;35.85;;
56285;SDS011;42191;47.562;9.686;2023-05-19T04:54:30;36.42;;;34.03;;
56285;SDS011;42191;47.562;9.686;2023-05-19T04:56:57;36.65;;;34.45;;
56285;SDS011;42191;47.562;9.686;2023-05-19T04:59:23;38.03;;;35.65;;
56285;SDS011;42191;47.562;9.686;2023-05-19T05:01:49;36.05;;;33.75;;
56285;SDS011;42191;47.562;9.686;2023-05-19T05:04:16;36.42;;;34.15;;
56285;SDS011;42191;47.562;9.686;2023-05-19T05:06:42;37.30;;;34.90;;
56285;SDS011;42191;47.562;9.686;2023-05-19T05:09:12;35.08;;;32.88;;
56285;SDS011;42191;47.562;9.686;2023-05-19T05:11:39;36.42;;;34.20;;
56285;SDS011;42191;47.562;9.686;2023-05-19T05:14:05;35.55;;;33.38;;
56285;SDS011;42191;47.562;9.686;2023-05-19T05:16:32;37.33;;;35.03;;
56285;SDS011;42191;47.562;9.686;2023-05-19T05:18:59;37.63;;;35.33;;
56285;SDS011;42191;47.562;9.686;2023-05-19T05:21:26;36.55;;;34.25;;
56285;SDS011;42191;47.562;9.686;2023-05-19T05:23:53;36.40;;;34.10;;
56285;SDS011;42191;47.562;9.686;2023-05-19T05:26:20;36.90;;;34.63;;
56285;SDS011;42191;47.562;9.686;2023-05-19T05:28:50;37.95;;;35.65;;
56285;SDS011;42191;47.562;9.686;2023-05-19T05:31:16;35.92;;;33.72;;
56285;SDS011;42191;47.562;9.686;2023-05-19T05:33:42;37.17;;;34.88;;
56285;SDS011;42191;47.562;9.686;2023-05-19T05:36:08;35.75;;;33.55;;
56285;SDS011;42191;47.562;9.686;2023-05-19T05:38:34;36.75;;;34.45;;
56285;SDS011;42191;47.562;9.686;2023-05-19T05:41:01;36.78;;;34.55;;
56285;SDS011;42191;47.562;9.686;2023-05-19T05:43:27;36.22;;;34.00;;
56285;SDS011;42191;47.562;9.686;2023-05-19T05:45:55;33.30;;;31.20;;
56285;SDS011;42191;47.562;9.686;2023-05-19T05:48:21;35.50;;;33.30;;
56285;SDS011;42191;47.562;9.686;2023-05-19T05:50:48;34.70;;;32.60;;
56285;SDS011;42191;47.562;9.686;2023-05-19T05:53:16;36.88;;;34.58;;
56285;SDS011;42191;47.562;9.686;2023-05-19T05:55:44;36.67;;;34.45;;
56285;SDS011;42191;47.562;9.686;2023-05-19T05:58:13;36.08;;;33.83;;
56285;SDS011;42191;47.562;9.686;2023-05-19T06:00:41;33.47;;;31.42;;
56285;SDS011;42191;47.562;9.686;2023-05-19T06:03:07;33.80;;;31.80;;
56285;SDS011;42191;47.562;9.686;2023-05-19T06:05:34;35.17;;;32.97;;
56285;SDS011;42191;47.562;9.686;2023-05-19T06:08:01;35.45;;;33.35;;
56285;SDS011;42191;47.562;9.686;2023-05-19T06:10:28;33.92;;;31.73;;
56285;SDS011;42191;47.562;9.686;2023-05-19T06:12:54;34.30;;;32.20;;
56285;SDS011;42191;47.562;9.686;2023-05-19T06:15:21;33.25;;;31.15;;
56285;SDS011;42191;47.562;9.686;2023-05-19T06:17:48;35.42;;;33.22;;
56285;SDS011;42191;47.562;9.686;2023-05-19T06:20:16;35.63;;;33.53;;
56285;SDS011;42191;47.562;9.686;2023-05-19T06:22:42;34.45;;;32.30;;
56285;SDS011;42191;47.562;9.686;2023-05-19T06:25:08;34.50;;;32.40;;
56285;SDS011;42191;47.562;9.686;2023-05-19T06:27:34;35.40;;;33.25;;
56285;SDS011;42191;47.562;9.686;2023-05-19T06:30:01;34.72;;;32.63;;
56285;SDS011;42191;47.562;9.686;2023-05-19T06:32:27;34.30;;;32.15;;
56285;SDS011;42191;47.562;9.686;2023-05-19T06:34:53;35.15;;;32.95;;
56285;SDS011;42191;47.562;9.686;2023-05-19T06:37:20;34.50;;;32.35;;
56285;SDS011;42191;47.562;9.686;2023-05-19T06:39:47;34.72;;;32.55;;
56285;SDS011;42191;47.562;9.686;2023-05-19T06:42:16;34.22;;;32.13;;
56285;SDS011;42191;47.562;9.686;2023-05-19T06:44:46;35.30;;;33.10;;
56285;SDS011;42191;47.562;9.686;2023-05-19T06:47:13;33.78;;;31.60;;
56285;SDS011;42191;47.562;9.686;2023-05-19T06:49:40;35.38;;;33.17;;
56285;SDS011;42191;47.562;9.686;2023-05-19T06:52:07;34.40;;;32.22;;
56285;SDS011;42191;47.562;9.686;2023-05-19T06:54:33;34.80;;;32.70;;
56285;SDS011;42191;47.562;9.686;2023-05-19T06:56:59;34.55;;;32.35;;
56285;SDS011;42191;47.562;9.686;2023-05-19T06:59:25;32.92;;;30.92;;
56285;SDS011;42191;47.562;9.686;2023-05-19T07:01:51;35.28;;;32.90;;
56285;SDS011;42191;47.562;9.686;2023-05-19T07:04:17;34.13;;;32.03;;
56285;SDS011;42191;47.562;9.686;2023-05-19T07:06:43;33.70;;;31.63;;
56285;SDS011;42191;47.562;9.686;2023-05-19T07:09:09;32.20;;;30.20;;
56285;SDS011;42191;47.562;9.686;2023-05-19T07:11:35;32.65;;;30.65;;
56285;SDS011;42191;47.562;9.686;2023-05-19T07:14:01;34.97;;;32.85;;
56285;SDS011;42191;47.562;9.686;2023-05-19T07:16:28;34.05;;;31.85;;
56285;SDS011;42191;47.562;9.686;2023-05-19T07:18:54;33.60;;;31.50;;
56285;SDS011;42191;47.562;9.686;2023-05-19T07:21:20;34.33;;;32.22;;
56285;SDS011;42191;47.562;9.686;2023-05-19T07:23:46;34.05;;;31.95;;
56285;SDS011;42191;47.562;9.686;2023-05-19T07:26:12;34.47;;;32.30;;
56285;SDS011;42191;47.562;9.686;2023-05-19T07:28:38;33.92;;;31.83;;
56285;SDS011;42191;47.562;9.686;2023-05-19T07:31:04;35.20;;;32.88;;
56285;SDS011;42191;47.562;9.686;2023-05-19T07:33:30;34.63;;;32.33;;
56285;SDS011;42191;47.562;9.686;2023-05-19T07:35:56;35.17;;;33.03;;
56285;SDS011;42191;47.562;9.686;2023-05-19T07:38:22;34.40;;;32.22;;
56285;SDS011;42191;47.562;9.686;2023-05-19T07:40:49;32.28;;;30.08;;
56285;SDS011;42191;47.562;9.686;2023-05-19T07:43:15;33.80;;;31.77;;
56285;SDS011;42191;47.562;9.686;2023-05-19T07:45:41;36.22;;;34.03;;
56285;SDS011;42191;47.562;9.686;2023-05-19T07:48:07;33.33;;;31.33;;
56285;SDS011;42191;47.562;9.686;2023-05-19T07:50:33;34.85;;;32.65;;
56285;SDS011;42191;47.562;9.686;2023-05-19T07:52:59;33.17;;;31.17;;
56285;SDS011;42191;47.562;9.686;2023-05-19T07:55:25;34.95;;;32.75;;
56285;SDS011;42191;47.562;9.686;2023-05-19T07:57:51;34.70;;;32.53;;
56285;SDS011;42191;47.562;9.686;2023-05-19T08:00:17;34.05;;;31.98;;
56285;SDS011;42191;47.562;9.686;2023-05-19T08:02:44;32.20;;;30.20;;
56285;SDS011;42191;47.562;9.686;2023-05-19T08:05:10;35.80;;;33.58;;
56285;SDS011;42191;47.562;9.686;2023-05-19T08:07:36;34.28;;;32.08;;
56285;SDS011;42191;47.562;9.686;2023-05-19T08:10:02;34.35;;;32.25;;
56285;SDS011;42191;47.562;9.686;2023-05-19T08:12:29;35.00;;;32.80;;
56285;SDS011;42191;47.562;9.686;2023-05-19T08:14:55;33.97;;;31.77;;
56285;SDS011;42191;47.562;9.686;2023-05-19T08:17:21;33.97;;;31.88;;
56285;SDS011;42191;47.562;9.686;2023-05-19T08:19:47;33.47;;;31.25;;
56285;SDS011;42191;47.562;9.686;2023-05-19T08:22:13;33.03;;;30.92;;
56285;SDS011;42191;47.562;9.686;2023-05-19T08:24:39;33.33;;;31.23;;
56285;SDS011;42191;47.562;9.686;2023-05-19T08:27:07;33.67;;;31.55;;
56285;SDS011;42191;47.562;9.686;2023-05-19T08:29:33;32.72;;;30.73;;
56285;SDS011;42191;47.562;9.686;2023-05-19T08:32:00;34.13;;;31.92;;
56285;SDS011;42191;47.562;9.686;2023-05-19T08:34:26;35.20;;;32.92;;
56285;SDS011;42191;47.562;9.686;2023-05-19T08:36:52;34.78;;;32.58;;
56285;SDS011;42191;47.562;9.686;2023-05-19T08:39:21;34.53;;;32.42;;
56285;SDS011;42191;47.562;9.686;2023-05-19T08:41:51;33.78;;;31.65;;
56285;SDS011;42191;47.562;9.686;2023-05-19T08:44:18;32.95;;;30.88;;
56285;SDS011;42191;47.562;9.686;2023-05-19T08:46:45;33.20;;;31.15;;
56285;SDS011;42191;47.562;9.686;2023-05-19T08:49:12;35.28;;;32.97;;
56285;SDS011;42191;47.562;9.686;2023-05-19T08:54:37;34.17;;;32.00;;
56285;SDS011;42191;47.562;9.686;2023-05-19T08:57:07;34.55;;;32.35;;
56285;SDS011;42191;47.562;9.686;2023-05-19T08:59:34;33.53;;;31.23;;
56285;SDS011;42191;47.562;9.686;2023-05-19T09:02:01;35.05;;;32.78;;
56285;SDS011;42191;47.562;9.686;2023-05-19T09:04:28;33.50;;;31.40;;
56285;SDS011;42191;47.562;9.686;2023-05-19T09:06:54;34.03;;;31.92;;
56285;SDS011;42191;47.562;9.686;2023-05-19T09:09:20;36.83;;;34.10;;
56285;SDS011;42191;47.562;9.686;2023-05-19T09:11:47;34.88;;;32.47;;
56285;SDS011;42191;47.562;9.686;2023-05-19T09:14:13;32.35;;;30.27;;
56285;SDS011;42191;47.562;9.686;2023-05-19T09:16:39;34.08;;;31.77;;
56285;SDS011;42191;47.562;9.686;2023-05-19T09:19:11;33.67;;;31.48;;
56285;SDS011;42191;47.562;9.686;2023-05-19T09:21:39;34.55;;;32.35;;
56285;SDS011;42191;47.562;9.686;2023-05-19T09:24:05;34.17;;;32.03;;
56285;SDS011;42191;47.562;9.686;2023-05-19T09:26:37;33.83;;;31.60;;
56285;SDS011;42191;47.562;9.686;2023-05-19T09:29:17;34.75;;;32.55;;
56285;SDS011;42191;47.562;9.686;2023-05-19T09:31:46;31.85;;;29.83;;
56285;SDS011;42191;47.562;9.686;2023-05-19T09:34:14;34.33;;;32.13;;
56285;SDS011;42191;47.562;9.686;2023-05-19T09:36:40;33.38;;;31.23;;
56285;SDS011;42191;47.562;9.686;2023-05-19T09:39:16;32.55;;;30.25;;
56285;SDS011;42191;47.562;9.686;2023-05-19T09:41:43;34.55;;;32.13;;
56285;SDS011;42191;47.562;9.686;2023-05-19T09:44:20;32.85;;;30.55;;
56285;SDS011;42191;47.562;9.686;2023-05-19T09:51:49;33.63;;;31.50;;
56285;SDS011;42191;47.562;9.686;2023-05-19T09:54:28;31.40;;;29.40;;
56285;SDS011;42191;47.562;9.686;2023-05-19T09:57:02;32.25;;;30.08;;
56285;SDS011;42191;47.562;9.686;2023-05-19T09:59:31;31.85;;;29.85;;
56285;SDS011;42191;47.562;9.686;2023-05-19T10:01:58;31.15;;;29.17;;
56285;SDS011;42191;47.562;9.686;2023-05-19T10:04:26;32.97;;;30.67;;
56285;SDS011;42191;47.562;9.686;2023-05-19T10:06:54;33.13;;;31.02;;
56285;SDS011;42191;47.562;9.686;2023-05-19T10:09:25;32.65;;;30.30;;
56285;SDS011;42191;47.562;9.686;2023-05-19T10:11:52;29.90;;;27.70;;
56285;SDS011;42191;47.562;9.686;2023-05-19T10:14:24;30.85;;;28.85;;
56285;SDS011;42191;47.562;9.686;2023-05-19T10:16:52;32.30;;;30.30;;
56285;SDS011;42191;47.562;9.686;2023-05-19T10:19:20;32.95;;;30.90;;
56285;SDS011;42191;47.562;9.686;2023-05-19T10:21:47;34.10;;;31.80;;
56285;SDS011;42191;47.562;9.686;2023-05-19T10:24:14;32.95;;;30.85;;
56285;SDS011;42191;47.562;9.686;2023-05-19T10:26:43;32.80;;;30.67;;
56285;SDS011;42191;47.562;9.686;2023-05-19T10:29:11;33.38;;;31.02;;
56285;SDS011;42191;47.562;9.686;2023-05-19T10:31:41;32.42;;;30.33;;
56285;SDS011;42191;47.562;9.686;2023-05-19T10:34:19;31.58;;;29.52;;
56285;SDS011;42191;47.562;9.686;2023-05-19T10:39:33;32.65;;;30.55;;
56285;SDS011;42191;47.562;9.686;2023-05-19T10:42:08;32.30;;;30.27;;
56285;SDS011;42191;47.562;9.686;2023-05-19T10:47:24;31.85;;;29.70;;
56285;SDS011;42191;47.562;9.686;2023-05-19T10:49:51;32.75;;;30.55;;
56285;SDS011;42191;47.562;9.686;2023-05-19T10:52:21;32.50;;;30.30;;
56285;SDS011;42191;47.562;9.686;2023-05-19T10:54:53;31.85;;;29.75;;
56285;SDS011;42191;47.562;9.686;2023-05-19T10:57:25;32.85;;;30.85;;
56285;SDS011;42191;47.562;9.686;2023-05-19T10:59:52;32.72;;;30.52;;
56285;SDS011;42191;47.562;9.686;2023-05-19T11:05:07;33.15;;;31.02;;
56285;SDS011;42191;47.562;9.686;2023-05-19T11:07:33;32.42;;;30.13;;
56285;SDS011;42191;47.562;9.686;2023-05-19T11:10:04;32.15;;;30.05;;
56285;SDS011;42191;47.562;9.686;2023-05-19T11:12:38;34.47;;;32.17;;
56285;SDS011;42191;47.562;9.686;2023-05-19T11:15:12;33.70;;;31.50;;
56285;SDS011;42191;47.562;9.686;2023-05-19T11:17:39;33.03;;;30.75;;
56285;SDS011;42191;47.562;9.686;2023-05-19T11:20:07;32.95;;;30.75;;
56285;SDS011;42191;47.562;9.686;2023-05-19T11:22:45;30.98;;;28.83;;
56285;SDS011;42191;47.562;9.686;2023-05-19T11:25:48;31.88;;;29.67;;
56285;SDS011;42191;47.562;9.686;2023-05-19T11:28:17;32.70;;;30.42;;
56285;SDS011;42191;47.562;9.686;2023-05-19T11:30:45;31.58;;;29.27;;
56285;SDS011;42191;47.562;9.686;2023-05-19T11:33:14;31.38;;;29.23;;
56285;SDS011;42191;47.562;9.686;2023-05-19T11:35:44;31.30;;;29.10;;
56285;SDS011;42191;47.562;9.686;2023-05-19T11:38:11;32.90;;;30.70;;
56285;SDS011;42191;47.562;9.686;2023-05-19T11:40:40;33.60;;;31.23;;
56285;SDS011;42191;47.562;9.686;2023-05-19T11:43:07;32.40;;;30.30;;
56285;SDS011;42191;47.562;9.686;2023-05-19T11:45:33;32.85;;;30.42;;
56285;SDS011;42191;47.562;9.686;2023-05-19T11:47:59;32.85;;;30.75;;
56285;SDS011;42191;47.562;9.686;2023-05-19T11:50:32;31.67;;;29.25;;
56285;SDS011;42191;47.562;9.686;2023-05-19T11:53:01;31.50;;;29.30;;
56285;SDS011;42191;47.562;9.686;2023-05-19T11:55:27;31.55;;;29.27;;
56285;SDS011;42191;47.562;9.686;2023-05-19T11:58:00;30.88;;;28.88;;
56285;SDS011;42191;47.562;9.686;2023-05-19T12:00:27;31.08;;;28.88;;
56285;SDS011;42191;47.562;9.686;2023-05-19T12:02:55;31.73;;;29.50;;
56285;SDS011;42191;47.562;9.686;2023-05-19T12:05:22;30.02;;;28.13;;
56285;SDS011;42191;47.562;9.686;2023-05-19T12:07:49;31.52;;;29.42;;
56285;SDS011;42191;47.562;9.686;2023-05-19T12:10:26;30.17;;;28.15;;
56285;SDS011;42191;47.562;9.686;2023-05-19T12:12:54;30.42;;;28.42;;
56285;SDS011;42191;47.562;9.686;2023-05-19T12:15:21;29.77;;;27.67;;
56285;SDS011;42191;47.562;9.686;2023-05-19T12:17:58;30.15;;;28.15;;
56285;SDS011;42191;47.562;9.686;2023-05-19T12:20:26;31.35;;;29.25;;
56285;SDS011;42191;47.562;9.686;2023-05-19T12:22:56;31.65;;;29.45;;
56285;SDS011;42191;47.562;9.686;2023-05-19T12:25:24;32.05;;;29.63;;
56285;SDS011;42191;47.562;9.686;2023-05-19T12:27:50;31.75;;;29.67;;
56285;SDS011;42191;47.562;9.686;2023-05-19T12:30:23;30.35;;;28.02;;
56285;SDS011;42191;47.562;9.686;2023-05-19T12:32:53;31.80;;;29.70;;
56285;SDS011;42191;47.562;9.686;2023-05-19T12:35:26;31.10;;;29.10;;
56285;SDS011;42191;47.562;9.686;2023-05-19T12:38:01;30.23;;;28.17;;
56285;SDS011;42191;47.562;9.686;2023-05-19T12:40:28;29.63;;;27.73;;
56285;SDS011;42191;47.562;9.686;2023-05-19T12:42:55;30.83;;;28.73;;
56285;SDS011;42191;47.562;9.686;2023-05-19T12:45:22;29.27;;;27.38;;
56285;SDS011;42191;47.562;9.686;2023-05-19T12:47:51;31.42;;;29.10;;
56285;SDS011;42191;47.562;9.686;2023-05-19T12:50:18;29.38;;;27.35;;
56285;SDS011;42191;47.562;9.686;2023-05-19T12:52:45;29.95;;;28.02;;
56285;SDS011;42191;47.562;9.686;2023-05-19T12:55:12;30.38;;;28.38;;
56285;SDS011;42191;47.562;9.686;2023-05-19T12:57:42;30.95;;;28.75;;
56285;SDS011;42191;47.562;9.686;2023-05-19T13:00:16;31.38;;;29.30;;
56285;SDS011;42191;47.562;9.686;2023-05-19T13:05:26;30.05;;;27.90;;
56285;SDS011;42191;47.562;9.686;2023-05-19T13:07:58;30.13;;;28.13;;
56285;SDS011;42191;47.562;9.686;2023-05-19T13:10:33;30.02;;;28.02;;
56285;SDS011;42191;47.562;9.686;2023-05-19T13:13:01;30.17;;;28.17;;
56285;SDS011;42191;47.562;9.686;2023-05-19T13:15:28;30.50;;;28.40;;
56285;SDS011;42191;47.562;9.686;2023-05-19T13:17:58;30.70;;;28.25;;
56285;SDS011;42191;47.562;9.686;2023-05-19T13:20:26;31.17;;;28.98;;
56285;SDS011;42191;47.562;9.686;2023-05-19T13:22:52;30.38;;;28.27;;
56285;SDS011;42191;47.562;9.686;2023-05-19T13:25:18;29.98;;;27.88;;
56285;SDS011;42191;47.562;9.686;2023-05-19T13:27:45;29.77;;;27.88;;
56285;SDS011;42191;47.562;9.686;2023-05-19T13:30:12;30.88;;;28.70;;
56285;SDS011;42191;47.562;9.686;2023-05-19T13:32:40;31.77;;;29.52;;
56285;SDS011;42191;47.562;9.686;2023-05-19T13:35:08;30.98;;;28.50;;
56285;SDS011;42191;47.562;9.686;2023-05-19T13:37:35;30.48;;;28.38;;
56285;SDS011;42191;47.562;9.686;2023-05-19T13:40:02;32.63;;;29.73;;
56285;SDS011;42191;47.562;9.686;2023-05-19T13:42:30;33.95;;;30.55;;
56285;SDS011;42191;47.562;9.686;2023-05-19T13:44:57;34.33;;;30.98;;
56285;SDS011;42191;47.562;9.686;2023-05-19T13:47:23;32.65;;;30.40;;
56285;SDS011;42191;47.562;9.686;2023-05-19T13:49:50;31.98;;;29.58;;
56285;SDS011;42191;47.562;9.686;2023-05-19T13:52:16;31.73;;;29.70;;
56285;SDS011;42191;47.562;9.686;2023-05-19T13:54:44;31.67;;;29.58;;
56285;SDS011;42191;47.562;9.686;2023-05-19T13:57:11;33.42;;;30.80;;
56285;SDS011;42191;47.562;9.686;2023-05-19T13:59:37;33.80;;;30.60;;
56285;SDS011;42191;47.562;9.686;2023-05-19T14:02:03;31.50;;;29.15;;
56285;SDS011;42191;47.562;9.686;2023-05-19T14:04:31;31.60;;;29.38;;
56285;SDS011;42191;47.562;9.686;2023-05-19T14:06:57;33.92;;;31.42;;
56285;SDS011;42191;47.562;9.686;2023-05-19T14:09:23;32.40;;;30.00;;
56285;SDS011;42191;47.562;9.686;2023-05-19T14:11:49;32.80;;;30.40;;
56285;SDS011;42191;47.562;9.686;2023-05-19T14:14:15;34.58;;;31.73;;
56285;SDS011;42191;47.562;9.686;2023-05-19T14:16:41;33.83;;;31.52;;
56285;SDS011;42191;47.562;9.686;2023-05-19T14:19:07;33.70;;;31.20;;
56285;SDS011;42191;47.562;9.686;2023-05-19T14:21:33;32.92;;;30.63;;
56285;SDS011;42191;47.562;9.686;2023-05-19T14:24:00;33.00;;;30.70;;
56285;SDS011;42191;47.562;9.686;2023-05-19T14:26:26;33.45;;;30.90;;
56285;SDS011;42191;47.562;9.686;2023-05-19T14:28:52;32.85;;;30.65;;
56285;SDS011;42191;47.562;9.686;2023-05-19T14:31:20;31.88;;;29.77;;
56285;SDS011;42191;47.562;9.686;2023-05-19T14:33:46;33.92;;;31.63;;
56285;SDS011;42191;47.562;9.686;2023-05-19T14:36:12;32.55;;;30.35;;
56285;SDS011;42191;47.562;9.686;2023-05-19T14:38:39;34.55;;;32.15;;
56285;SDS011;42191;47.562;9.686;2023-05-19T14:41:05;34.50;;;31.88;;
56285;SDS011;42191;47.562;9.686;2023-05-19T14:43:31;34.35;;;32.05;;
56285;SDS011;42191;47.562;9.686;2023-05-19T14:45:57;33.95;;;31.73;;
56285;SDS011;42191;47.562;9.686;2023-05-19T14:48:23;34.83;;;32.22;;
56285;SDS011;42191;47.562;9.686;2023-05-19T14:50:50;35.90;;;32.60;;
56285;SDS011;42191;47.562;9.686;2023-05-19T14:53:16;33.60;;;31.10;;
56285;SDS011;42191;47.562;9.686;2023-05-19T14:55:42;34.58;;;32.28;;
56285;SDS011;42191;47.562;9.686;2023-05-19T14:58:08;35.72;;;33.33;;
56285;SDS011;42191;47.562;9.686;2023-05-19T15:00:35;35.55;;;33.00;;
56285;SDS011;42191;47.562;9.686;2023-05-19T15:03:01;35.55;;;33.15;;
56285;SDS011;42191;47.562;9.686;2023-05-19T15:05:27;36.05;;;33.55;;
56285;SDS011;42191;47.562;9.686;2023-05-19T15:07:53;35.30;;;32.80;;
56285;SDS011;42191;47.562;9.686;2023-05-19T15:10:19;34.45;;;31.95;;